createdAt,value
2022-10-10T00:01:34.246Z,3.47
2022-10-10T00:04:02.610Z,3.55
2022-10-10T00:06:33.070Z,3.83
2022-10-10T00:09:03.217Z,3.10
2022-10-10T00:11:31.234Z,3.63
2022-10-10T00:13:59.367Z,3.42
2022-10-10T00:16:26.986Z,3.20
2022-10-10T00:18:54.629Z,2.95
2022-10-10T00:21:22.214Z,3.40
2022-10-10T00:23:49.721Z,3.40
2022-10-10T00:26:19.510Z,2.92
2022-10-10T00:28:47.458Z,3.15
2022-10-10T00:31:15.741Z,3.25
2022-10-10T00:33:43.244Z,3.60
2022-10-10T00:36:10.952Z,4.18
2022-10-10T00:38:38.473Z,3.65
2022-10-10T00:41:06.326Z,3.42
2022-10-10T00:43:35.944Z,3.30
2022-10-10T00:46:03.955Z,3.20
2022-10-10T00:48:34.299Z,2.85
2022-10-10T00:51:04.128Z,3.10
2022-10-10T00:53:35.464Z,3.05
2022-10-10T00:56:04.354Z,2.65
2022-10-10T00:58:33.515Z,3.30
2022-10-10T01:01:02.761Z,2.50
2022-10-10T01:03:30.274Z,3.10
2022-10-10T01:05:57.826Z,2.83
2022-10-10T01:08:25.432Z,3.30
2022-10-10T01:11:06.188Z,3.05
2022-10-10T01:13:40.260Z,3.10
2022-10-10T01:16:17.272Z,2.50
2022-10-10T01:18:53.345Z,3.33
2022-10-10T01:21:28.541Z,3.75
2022-10-10T01:24:31.398Z,2.92
2022-10-10T01:27:12.402Z,3.00
2022-10-10T01:29:44.625Z,2.78
2022-10-10T01:32:17.146Z,2.90
2022-10-10T01:34:56.643Z,2.95
2022-10-10T01:37:34.752Z,2.63
2022-10-10T01:40:10.325Z,2.75
2022-10-10T01:42:43.779Z,2.58
2022-10-10T01:47:40.277Z,2.38
2022-10-10T01:50:13.529Z,2.83
2022-10-10T01:52:53.720Z,2.70
2022-10-10T01:55:35.463Z,2.55
2022-10-10T01:58:18.743Z,2.70
2022-10-10T02:00:52.676Z,2.30
2022-10-10T02:03:25.171Z,2.55
2022-10-10T02:05:57.248Z,2.33
2022-10-10T02:08:29.681Z,2.47
2022-10-10T02:11:01.264Z,2.70
2022-10-10T02:13:32.216Z,2.50
2022-10-10T02:16:03.913Z,2.38
2022-10-10T02:18:36.198Z,2.30
2022-10-10T02:21:07.311Z,2.15
2022-10-10T02:23:35.562Z,2.40
2022-10-10T02:26:05.232Z,2.88
2022-10-10T02:28:39.025Z,2.53
2022-10-10T02:31:11.960Z,2.40
2022-10-10T02:33:45.585Z,1.73
2022-10-10T02:36:15.336Z,2.40
2022-10-10T02:38:44.265Z,2.30
2022-10-10T02:41:15.468Z,2.30
2022-10-10T02:43:43.431Z,2.58
2022-10-10T02:46:14.550Z,2.47
2022-10-10T02:48:42.371Z,2.45
2022-10-10T02:51:10.588Z,2.45
2022-10-10T02:53:39.661Z,2.30
2022-10-10T02:56:07.840Z,2.70
2022-10-10T02:58:35.555Z,2.05
2022-10-10T03:01:03.216Z,2.35
2022-10-10T03:03:32.085Z,2.22
2022-10-10T03:05:59.621Z,2.53
2022-10-10T03:08:27.138Z,2.70
2022-10-10T03:10:56.703Z,2.42
2022-10-10T03:13:25.173Z,3.13
2022-10-10T03:15:52.801Z,2.53
2022-10-10T03:18:21.104Z,2.33
2022-10-10T03:20:52.815Z,2.20
2022-10-10T03:23:20.736Z,2.45
2022-10-10T03:25:48.347Z,2.78
2022-10-10T03:28:16.125Z,2.55
2022-10-10T03:30:44.075Z,3.58
2022-10-10T03:33:11.631Z,2.58
2022-10-10T03:35:39.152Z,2.30
2022-10-10T03:38:08.393Z,2.38
2022-10-10T03:40:41.761Z,2.30
2022-10-10T03:45:37.185Z,2.60
2022-10-10T03:48:05.885Z,2.53
2022-10-10T03:50:33.400Z,2.75
2022-10-10T03:53:00.924Z,2.40
2022-10-10T03:55:29.861Z,2.83
2022-10-10T03:57:57.384Z,2.58
2022-10-10T04:00:25.104Z,2.50
2022-10-10T04:02:53.565Z,2.83
2022-10-10T04:05:21.367Z,2.63
2022-10-10T04:07:48.920Z,2.67
2022-10-10T04:10:16.806Z,2.88
2022-10-10T04:12:45.687Z,2.88
2022-10-10T04:15:13.198Z,2.80
2022-10-10T04:17:40.701Z,2.67
2022-10-10T04:20:08.964Z,2.70
2022-10-10T04:22:36.581Z,2.60
2022-10-10T04:25:04.288Z,2.50
2022-10-10T04:27:31.881Z,2.63
2022-10-10T04:30:00.721Z,2.58
2022-10-10T04:32:28.205Z,2.90
2022-10-10T04:34:55.707Z,5.32
2022-10-10T04:37:23.240Z,8.57
2022-10-10T04:39:50.777Z,7.63
2022-10-10T04:42:18.421Z,3.53
2022-10-10T04:44:45.959Z,3.28
2022-10-10T04:47:14.797Z,4.00
2022-10-10T04:49:42.353Z,3.30
2022-10-10T04:52:10.146Z,3.30
2022-10-10T04:54:37.725Z,3.63
2022-10-10T04:57:05.521Z,4.10
2022-10-10T04:59:33.805Z,3.70
2022-10-10T05:02:02.080Z,3.20
2022-10-10T05:04:31.159Z,3.38
2022-10-10T05:06:58.776Z,3.20
2022-10-10T05:09:26.630Z,3.35
2022-10-10T05:11:54.143Z,2.60
2022-10-10T05:14:21.669Z,2.80
2022-10-10T05:16:49.204Z,2.88
2022-10-10T05:19:16.715Z,2.13
2022-10-10T05:21:45.604Z,2.47
2022-10-10T05:24:13.136Z,2.65
2022-10-10T05:26:43.265Z,2.95
2022-10-10T05:29:11.032Z,2.70
2022-10-10T05:31:38.676Z,2.42
2022-10-10T05:34:06.232Z,2.55
2022-10-10T05:36:33.800Z,2.55
2022-10-10T05:39:03.292Z,2.55
2022-10-10T05:41:30.817Z,3.92
2022-10-10T05:43:58.403Z,3.60
2022-10-10T05:46:27.389Z,2.40
2022-10-10T05:48:55.570Z,3.50
2022-10-10T05:51:23.132Z,2.70
2022-10-10T05:53:50.629Z,2.60
2022-10-10T05:56:19.709Z,2.88
2022-10-10T05:58:47.309Z,2.83
2022-10-10T06:01:14.822Z,3.33
2022-10-10T06:03:42.409Z,2.53
2022-10-10T06:06:09.970Z,3.25
2022-10-10T06:08:37.493Z,3.45
2022-10-10T06:11:07.854Z,4.00
2022-10-10T06:13:37.751Z,2.85
2022-10-10T06:16:05.438Z,2.70
2022-10-10T06:18:32.980Z,2.67
2022-10-10T06:21:03.141Z,2.70
2022-10-10T06:23:30.863Z,2.65
2022-10-10T06:25:58.517Z,2.88
2022-10-10T06:28:26.317Z,4.22
2022-10-10T06:30:55.188Z,2.80
2022-10-10T06:33:22.776Z,2.97
2022-10-10T06:35:50.421Z,2.40
2022-10-10T06:38:18.004Z,2.80
2022-10-10T06:40:46.405Z,2.63
2022-10-10T06:43:16.097Z,3.00
2022-10-10T06:45:45.016Z,2.90
2022-10-10T06:48:15.671Z,2.90
2022-10-10T06:50:43.432Z,2.78
2022-10-10T06:53:11.028Z,3.63
2022-10-10T06:55:38.673Z,3.60
2022-10-10T06:58:07.486Z,3.00
2022-10-10T07:00:35.118Z,3.63
2022-10-10T07:03:02.651Z,4.25
2022-10-10T07:05:31.527Z,3.60
2022-10-10T07:07:59.057Z,4.82
2022-10-10T07:10:26.617Z,3.20
2022-10-10T07:12:54.422Z,2.85
2022-10-10T07:15:22.079Z,3.10
2022-10-10T07:17:54.270Z,3.50
2022-10-10T07:20:21.973Z,3.28
2022-10-10T07:22:51.272Z,3.22
2022-10-10T07:25:18.973Z,3.50
2022-10-10T07:27:46.524Z,3.17
2022-10-10T07:30:14.470Z,4.22
2022-10-10T07:32:44.152Z,4.60
2022-10-10T07:35:12.305Z,3.78
2022-10-10T07:37:40.076Z,3.53
2022-10-10T07:40:10.589Z,4.10
2022-10-10T07:42:38.241Z,3.47
2022-10-10T07:45:07.182Z,4.28
2022-10-10T07:47:34.817Z,3.28
2022-10-10T07:50:02.526Z,3.20
2022-10-10T07:52:30.063Z,3.17
2022-10-10T07:54:57.612Z,3.40
2022-10-10T07:57:26.651Z,3.28
2022-10-10T07:59:54.242Z,3.80
2022-10-10T08:02:21.792Z,3.40
2022-10-10T08:04:49.968Z,3.67
2022-10-10T08:07:19.469Z,3.75
2022-10-10T08:09:47.080Z,4.10
2022-10-10T08:12:14.685Z,3.58
2022-10-10T08:14:43.690Z,3.60
2022-10-10T08:17:11.591Z,3.63
2022-10-10T08:19:39.446Z,4.28
2022-10-10T08:22:07.285Z,5.22
2022-10-10T08:24:34.940Z,4.50
2022-10-10T08:27:02.484Z,4.25
2022-10-10T08:29:30.072Z,3.75
2022-10-10T08:31:58.982Z,4.50
2022-10-10T08:34:26.527Z,4.53
2022-10-10T08:36:54.081Z,7.78
2022-10-10T08:39:21.788Z,6.15
2022-10-10T08:41:52.199Z,4.13
2022-10-10T08:44:25.290Z,3.28
2022-10-10T08:46:56.560Z,3.50
2022-10-10T08:49:30.963Z,3.78
2022-10-10T08:52:04.586Z,3.78
2022-10-10T08:54:35.451Z,3.45
2022-10-10T08:57:06.838Z,3.28
2022-10-10T08:59:36.439Z,3.08
2022-10-10T09:02:53.262Z,3.85
2022-10-10T09:05:34.753Z,2.53
2022-10-10T09:08:17.813Z,2.50
2022-10-10T09:10:56.227Z,2.30
2022-10-10T09:13:32.711Z,2.53
2022-10-10T09:16:02.271Z,2.42
2022-10-10T09:18:42.285Z,2.40
2022-10-10T09:21:17.184Z,2.10
2022-10-10T09:23:51.564Z,1.95
2022-10-10T09:26:24.163Z,2.20
2022-10-10T09:28:57.966Z,3.70
2022-10-10T09:31:37.090Z,2.00
2022-10-10T09:34:15.099Z,2.05
2022-10-10T09:36:48.421Z,2.35
2022-10-10T09:41:58.995Z,1.92
2022-10-10T09:46:55.114Z,1.67
2022-10-10T09:49:23.115Z,1.92
2022-10-10T09:51:52.169Z,1.75
2022-10-10T09:54:22.673Z,1.92
2022-10-10T09:56:54.686Z,1.70
2022-10-10T09:59:40.531Z,1.70
2022-10-10T10:02:15.026Z,1.80
2022-10-10T10:04:42.648Z,1.63
2022-10-10T10:07:22.650Z,1.98
2022-10-10T10:09:51.793Z,1.77
2022-10-10T10:12:23.016Z,2.30
2022-10-10T10:14:51.795Z,1.90
2022-10-10T10:17:24.359Z,2.55
2022-10-10T10:19:52.192Z,1.93
2022-10-10T10:22:33.064Z,2.38
2022-10-10T10:25:21.182Z,2.00
2022-10-10T10:27:50.103Z,2.00
2022-10-10T10:30:26.296Z,2.13
2022-10-10T10:33:02.916Z,1.80
2022-10-10T10:35:37.156Z,1.83
2022-10-10T10:38:18.815Z,1.80
2022-10-10T10:40:54.948Z,1.73
2022-10-10T10:43:36.757Z,1.83
2022-10-10T10:46:11.694Z,2.53
2022-10-10T10:48:46.179Z,1.48
2022-10-10T10:51:29.526Z,1.55
2022-10-10T10:54:08.440Z,1.55
2022-10-10T10:56:42.036Z,1.67
2022-10-10T11:00:16.654Z,1.60
2022-10-10T11:02:54.709Z,1.45
2022-10-10T11:05:41.640Z,1.35
2022-10-10T11:08:37.493Z,1.35
2022-10-10T11:11:21.269Z,1.55
2022-10-10T11:14:00.004Z,1.65
2022-10-10T11:16:50.584Z,1.60
2022-10-10T11:19:28.778Z,1.50
2022-10-10T11:22:03.052Z,1.30
2022-10-10T11:24:40.184Z,1.50
2022-10-10T11:27:14.236Z,1.92
2022-10-10T11:29:53.973Z,2.15
2022-10-10T11:32:28.252Z,1.30
2022-10-10T11:35:07.237Z,1.30
2022-10-10T11:37:40.976Z,1.30
2022-10-10T11:40:26.651Z,1.55
2022-10-10T11:42:58.855Z,1.55
2022-10-10T11:45:29.200Z,1.48
2022-10-10T11:48:05.917Z,1.63
2022-10-10T11:50:38.328Z,1.23
2022-10-10T11:53:13.104Z,1.60
2022-10-10T11:55:46.321Z,1.35
2022-10-10T12:00:57.544Z,1.20
2022-10-10T12:03:27.200Z,1.50
2022-10-10T12:06:01.110Z,1.55
2022-10-10T12:08:35.862Z,2.13
2022-10-10T12:11:10.654Z,3.35
2022-10-10T12:13:41.231Z,1.35
2022-10-10T12:16:11.248Z,2.10
2022-10-10T12:18:45.810Z,1.85
2022-10-10T12:21:15.876Z,2.00
2022-10-10T12:23:47.301Z,1.73
2022-10-10T12:26:17.586Z,1.33
2022-10-10T12:29:05.937Z,1.30
2022-10-10T12:31:36.029Z,1.63
2022-10-10T12:34:14.202Z,1.73
2022-10-10T12:36:58.049Z,2.20
2022-10-10T12:40:01.546Z,1.40
2022-10-10T12:42:31.344Z,1.90
2022-10-10T12:44:58.857Z,1.40
2022-10-10T12:48:03.264Z,1.48
2022-10-10T12:50:27.828Z,1.35
2022-10-10T12:52:58.478Z,1.70
2022-10-10T12:55:29.999Z,1.70
2022-10-10T12:58:00.803Z,1.40
2022-10-10T13:00:37.153Z,1.38
2022-10-10T13:03:13.441Z,2.03
2022-10-10T13:05:42.659Z,1.70
2022-10-10T13:08:16.066Z,2.30
2022-10-10T13:10:44.119Z,1.60
2022-10-10T13:13:18.872Z,1.42
2022-10-10T13:15:53.250Z,1.52
2022-10-10T13:18:33.939Z,1.80
2022-10-10T13:21:04.137Z,1.73
2022-10-10T13:23:32.892Z,1.50
2022-10-10T13:26:00.613Z,1.50
2022-10-10T13:28:29.049Z,1.85
2022-10-10T13:30:56.854Z,1.45
2022-10-10T13:33:30.210Z,1.70
2022-10-10T13:36:07.700Z,2.00
2022-10-10T13:38:36.584Z,1.52
2022-10-10T13:41:05.535Z,1.40
2022-10-10T13:43:34.296Z,1.50
2022-10-10T13:46:03.463Z,4.07
2022-10-10T13:48:40.883Z,1.73
2022-10-10T13:51:12.137Z,1.50
2022-10-10T13:53:50.528Z,1.52
2022-10-10T13:56:26.466Z,1.50
2022-10-10T13:58:58.053Z,1.10
2022-10-10T14:01:32.930Z,1.83
2022-10-10T14:04:08.672Z,1.48
2022-10-10T14:06:37.844Z,1.80
2022-10-10T14:09:10.297Z,1.38
2022-10-10T14:11:38.371Z,1.50
2022-10-10T14:14:09.405Z,1.77
2022-10-10T14:16:37.030Z,1.67
2022-10-10T14:19:04.603Z,1.42
2022-10-10T14:21:32.284Z,1.25
2022-10-10T14:24:01.319Z,2.90
2022-10-10T14:26:29.024Z,2.50
2022-10-10T14:28:56.655Z,1.92
2022-10-10T14:31:26.270Z,1.98
2022-10-10T14:33:54.026Z,1.58
2022-10-10T14:36:22.125Z,2.00
2022-10-10T14:38:49.749Z,1.70
2022-10-10T14:41:18.705Z,1.88
2022-10-10T14:43:46.453Z,1.60
2022-10-10T14:46:19.253Z,1.60
2022-10-10T14:48:47.338Z,1.63
2022-10-10T14:51:33.932Z,1.40
2022-10-10T14:54:11.989Z,1.60
2022-10-10T14:57:06.825Z,3.53
2022-10-10T14:59:47.331Z,2.10
2022-10-10T15:02:16.489Z,2.05
2022-10-10T15:04:44.072Z,2.97
2022-10-10T15:07:14.673Z,1.65
2022-10-10T15:09:56.595Z,2.08
2022-10-10T15:12:32.175Z,2.33
2022-10-10T15:14:59.723Z,1.73
2022-10-10T15:17:29.556Z,2.90
2022-10-10T15:19:57.201Z,2.40
2022-10-10T15:22:24.870Z,2.70
2022-10-10T15:24:52.571Z,1.73
2022-10-10T15:27:20.350Z,1.90
2022-10-10T15:29:49.301Z,1.95
2022-10-10T15:32:16.870Z,2.13
2022-10-10T15:34:44.921Z,2.72
2022-10-10T15:37:12.504Z,2.38
2022-10-10T15:39:41.138Z,2.20
2022-10-10T15:42:14.996Z,2.40
2022-10-10T15:44:46.554Z,2.13
2022-10-10T15:47:16.992Z,2.10
2022-10-10T15:49:44.700Z,2.50
2022-10-10T15:52:12.291Z,6.22
2022-10-10T15:54:40.061Z,5.30
2022-10-10T15:57:07.789Z,4.03
2022-10-10T15:59:37.938Z,2.72
2022-10-10T16:02:08.156Z,2.88
2022-10-10T16:04:37.088Z,2.47
2022-10-10T16:07:25.486Z,2.20
2022-10-10T16:09:53.516Z,1.95
2022-10-10T16:12:21.097Z,2.20
2022-10-10T16:14:48.842Z,2.65
2022-10-10T16:17:20.797Z,2.08
2022-10-10T16:19:52.366Z,2.67
2022-10-10T16:22:20.292Z,2.25
2022-10-10T16:25:10.164Z,1.80
2022-10-10T16:27:36.565Z,1.90
2022-10-10T16:30:04.549Z,2.95
2022-10-10T16:32:34.195Z,2.45
2022-10-10T16:35:06.387Z,1.73
2022-10-10T16:37:34.223Z,5.22
2022-10-10T16:40:01.769Z,3.92
2022-10-10T16:42:29.357Z,8.68
2022-10-10T16:44:56.970Z,3.20
2022-10-10T16:47:24.537Z,2.50
2022-10-10T16:49:52.061Z,2.60
2022-10-10T16:52:20.937Z,1.90
2022-10-10T16:54:51.962Z,2.10
2022-10-10T16:57:20.146Z,1.85
2022-10-10T16:59:47.839Z,2.10
2022-10-10T17:02:15.429Z,2.20
2022-10-10T17:04:43.007Z,2.00
2022-10-10T17:07:10.547Z,1.92
2022-10-10T17:09:39.488Z,1.95
2022-10-10T17:12:07.184Z,2.38
2022-10-10T17:14:34.963Z,4.22
2022-10-10T17:17:17.716Z,6.70
2022-10-10T17:19:45.283Z,4.10
2022-10-10T17:22:12.844Z,2.55
2022-10-10T17:24:41.778Z,2.55
2022-10-10T17:27:09.531Z,2.13
2022-10-10T17:29:37.161Z,2.00
2022-10-10T17:32:06.753Z,2.40
2022-10-10T17:34:35.039Z,2.58
2022-10-10T17:37:02.729Z,2.65
2022-10-10T17:39:30.281Z,2.55
2022-10-10T17:41:59.919Z,2.67
2022-10-10T17:44:27.479Z,7.47
2022-10-10T17:46:55.077Z,4.40
2022-10-10T17:49:22.670Z,2.65
2022-10-10T17:51:50.248Z,2.70
2022-10-10T17:54:18.235Z,3.50
2022-10-10T17:56:45.813Z,3.70
2022-10-10T17:59:14.712Z,4.45
2022-10-10T18:01:42.557Z,6.32
2022-10-10T18:04:10.358Z,5.47
2022-10-10T18:06:38.685Z,3.50
2022-10-10T18:09:07.241Z,5.15
2022-10-10T18:11:35.074Z,5.43
2022-10-10T18:14:02.582Z,4.20
2022-10-10T18:16:34.107Z,2.70
2022-10-10T18:19:03.291Z,3.38
2022-10-10T18:21:30.852Z,3.65
2022-10-10T18:23:58.624Z,4.35
2022-10-10T18:26:29.348Z,4.63
2022-10-10T18:28:58.061Z,3.35
2022-10-10T18:31:27.881Z,3.55
2022-10-10T18:33:57.180Z,3.20
2022-10-10T18:36:27.167Z,2.92
2022-10-10T18:38:55.303Z,2.80
2022-10-10T18:41:25.076Z,3.75
2022-10-10T18:43:53.014Z,4.68
2022-10-10T18:46:22.441Z,3.85
2022-10-10T18:48:54.083Z,5.25
2022-10-10T18:51:25.868Z,4.78
2022-10-10T18:53:58.423Z,5.30
2022-10-10T18:56:25.981Z,4.78
2022-10-10T18:58:56.163Z,4.90
2022-10-10T19:01:25.424Z,4.63
2022-10-10T19:03:54.640Z,4.82
2022-10-10T19:06:24.487Z,4.05
2022-10-10T19:08:52.561Z,4.35
2022-10-10T19:11:21.897Z,3.75
2022-10-10T19:13:49.967Z,3.45
2022-10-10T19:16:18.513Z,3.80
2022-10-10T19:18:46.447Z,3.40
2022-10-10T19:21:15.000Z,3.47
2022-10-10T19:23:44.287Z,3.75
2022-10-10T19:26:14.514Z,3.75
2022-10-10T19:28:42.617Z,4.03
2022-10-10T19:31:13.491Z,4.13
2022-10-10T19:33:42.225Z,4.43
2022-10-10T19:36:12.083Z,3.80
2022-10-10T19:38:42.002Z,3.85
2022-10-10T19:41:14.000Z,4.13
2022-10-10T19:43:41.694Z,4.22
2022-10-10T19:46:12.340Z,3.50
2022-10-10T19:48:40.365Z,3.45
2022-10-10T19:51:10.255Z,3.22
2022-10-10T19:53:38.085Z,3.17
2022-10-10T19:56:07.981Z,4.70
2022-10-10T19:58:37.600Z,3.03
2022-10-10T20:01:07.530Z,3.55
2022-10-10T20:03:35.141Z,3.67
2022-10-10T20:06:03.786Z,3.70
2022-10-10T20:08:31.672Z,3.38
2022-10-10T20:10:59.224Z,4.50
2022-10-10T20:13:27.288Z,2.95
2022-10-10T20:16:00.924Z,2.15
2022-10-10T20:18:28.853Z,2.38
2022-10-10T20:20:56.604Z,2.20
2022-10-10T20:23:26.019Z,2.65
2022-10-10T20:25:53.996Z,3.05
2022-10-10T20:28:22.546Z,2.13
2022-10-10T20:30:52.177Z,2.50
2022-10-10T20:33:22.311Z,2.30
2022-10-10T20:35:55.145Z,2.20
2022-10-10T20:38:25.676Z,5.00
2022-10-10T20:40:53.261Z,2.30
2022-10-10T20:43:20.773Z,2.95
2022-10-10T20:45:48.362Z,1.85
2022-10-10T20:48:15.892Z,2.47
2022-10-10T20:50:44.884Z,2.45
2022-10-10T20:53:13.335Z,1.92
2022-10-10T20:55:42.229Z,2.25
2022-10-10T20:58:09.977Z,2.00
2022-10-10T21:00:40.835Z,1.80
2022-10-10T21:03:08.536Z,2.00
2022-10-10T21:05:36.125Z,1.98
2022-10-10T21:08:05.236Z,2.10
2022-10-10T21:10:33.103Z,2.63
2022-10-10T21:13:00.744Z,2.15
2022-10-10T21:15:28.283Z,2.15
2022-10-10T21:17:55.953Z,2.10
2022-10-10T21:20:23.552Z,1.70
2022-10-10T21:22:51.109Z,1.92
2022-10-10T21:25:20.001Z,1.58
2022-10-10T21:27:49.796Z,1.77
2022-10-10T21:30:17.472Z,2.35
2022-10-10T21:32:45.121Z,2.03
2022-10-10T21:35:12.780Z,1.77
2022-10-10T21:37:41.304Z,2.45
2022-10-10T21:40:10.041Z,1.85
2022-10-10T21:42:39.061Z,2.30
2022-10-10T21:45:08.041Z,1.60
2022-10-10T21:47:35.660Z,1.75
2022-10-10T21:50:03.163Z,1.85
2022-10-10T21:52:30.683Z,1.90
2022-10-10T21:54:58.191Z,2.63
2022-10-10T21:57:25.763Z,2.53
2022-10-10T21:59:54.635Z,2.78
2022-10-10T22:02:22.203Z,2.45
2022-10-10T22:04:51.361Z,2.42
2022-10-10T22:07:19.245Z,2.47
2022-10-10T22:09:46.790Z,2.20
2022-10-10T22:12:15.792Z,2.00
2022-10-10T22:14:43.447Z,2.42
2022-10-10T22:17:12.291Z,2.08
2022-10-10T22:19:39.876Z,2.83
2022-10-10T22:22:07.390Z,2.45
2022-10-10T22:24:34.891Z,2.85
2022-10-10T22:27:02.443Z,2.67
2022-10-10T22:29:29.979Z,2.35
2022-10-10T22:31:57.671Z,2.30
2022-10-10T22:34:26.582Z,2.92
2022-10-10T22:36:55.423Z,3.17
2022-10-10T22:39:23.013Z,2.30
2022-10-10T22:41:50.665Z,2.17
2022-10-10T22:44:18.392Z,2.17
2022-10-10T22:46:45.923Z,2.25
2022-10-10T22:49:13.472Z,2.92
2022-10-10T22:51:42.323Z,2.55
2022-10-10T22:54:11.677Z,2.17
2022-10-10T22:56:39.200Z,1.77
2022-10-10T22:59:06.715Z,2.38
2022-10-10T23:01:34.260Z,2.40
2022-10-10T23:04:09.077Z,2.15
2022-10-10T23:06:36.948Z,2.22
2022-10-10T23:09:06.017Z,1.80
2022-10-10T23:11:33.875Z,1.90
2022-10-10T23:14:01.697Z,2.55
2022-10-10T23:16:31.693Z,2.50
2022-10-10T23:19:00.444Z,2.30
2022-10-10T23:21:28.095Z,2.08
2022-10-10T23:23:55.789Z,2.20
2022-10-10T23:26:24.640Z,2.78
2022-10-10T23:28:52.283Z,2.80
2022-10-10T23:31:19.959Z,3.53
2022-10-10T23:33:47.511Z,2.40
2022-10-10T23:36:16.090Z,2.38
2022-10-10T23:38:44.455Z,2.38
2022-10-10T23:41:13.033Z,2.85
2022-10-10T23:43:41.913Z,2.60
2022-10-10T23:46:09.603Z,3.10
2022-10-10T23:48:37.740Z,2.13
2022-10-10T23:51:05.490Z,2.80
2022-10-10T23:53:33.217Z,2.88
2022-10-10T23:56:00.871Z,3.42
2022-10-10T23:58:28.677Z,2.63
